Aviation Digital Data Service (ADDS)

Output produced by METARs form (1326 UTC 21 February 2019)
found at http://aviationweather.gov/metar/data/
 
METAR text: KAUN 211315Z AUTO 00000KT 9SM CLR M01/M01 A2966 RMK A01
Conditions at: KAUN (AUBURN MUNI , CA, US) observed 1315 UTC 21 February 2019
Temperature: -1.0°C (30°F)
Dewpoint: -1.0°C (30°F) [RH = 100%]
Pressure (altimeter): 29.66 inches Hg (1004.5 mb)
Winds: calm
Visibility: 9 miles (14 km)
Ceiling: at least 12,000 feet AGL
Clouds: sky clear below 12,000 feet AGL
Weather: automated observation with no human augmentation;
there may or may not be significant weather present at this time